createdAt,value
2019-05-10T00:01:32.259Z,99.90
2019-05-10T00:04:19.385Z,99.90
2019-05-10T00:07:06.099Z,99.90
2019-05-10T00:09:34.292Z,99.90
2019-05-10T00:12:10.260Z,99.90
2019-05-10T00:14:49.570Z,99.90
2019-05-10T00:17:19.847Z,99.90
2019-05-10T00:19:48.754Z,99.90
2019-05-10T00:22:17.970Z,99.90
2019-05-10T00:25:02.246Z,99.90
2019-05-10T00:27:18.856Z,99.90
2019-05-10T00:29:47.743Z,99.90
2019-05-10T00:32:16.667Z,99.90
2019-05-10T00:34:45.577Z,99.90
2019-05-10T00:37:14.485Z,99.90
2019-05-10T00:39:43.393Z,99.90
2019-05-10T00:42:12.403Z,99.90
2019-05-10T00:44:41.307Z,99.90
2019-05-10T00:47:10.217Z,99.90
2019-05-10T00:49:39.123Z,99.90
2019-05-10T00:52:08.239Z,99.90
2019-05-10T00:54:37.144Z,99.90
2019-05-10T00:57:06.159Z,99.90
2019-05-10T00:59:35.166Z,99.90
2019-05-10T01:02:04.161Z,99.90
2019-05-10T01:04:33.183Z,99.90
2019-05-10T01:07:02.296Z,99.90
2019-05-10T01:09:32.217Z,99.90
2019-05-10T01:12:02.407Z,99.90
2019-05-10T01:14:31.476Z,99.90
2019-05-10T01:17:00.383Z,99.90
2019-05-10T01:19:29.292Z,99.90
2019-05-10T01:21:58.203Z,99.90
2019-05-10T01:24:27.107Z,99.90
2019-05-10T01:26:56.014Z,99.90
2019-05-10T01:29:24.924Z,99.90
2019-05-10T01:31:53.813Z,99.90
2019-05-10T01:34:22.739Z,99.90
2019-05-10T01:36:51.646Z,99.90
2019-05-10T01:39:20.654Z,99.90
2019-05-10T01:41:49.572Z,99.90
2019-05-10T01:44:18.470Z,99.90
2019-05-10T01:46:47.480Z,99.90
2019-05-10T01:49:16.388Z,99.90
2019-05-10T01:51:45.283Z,99.90
2019-05-10T01:54:14.162Z,99.90
2019-05-10T01:56:43.115Z,99.90
2019-05-10T01:59:12.021Z,99.90
2019-05-10T02:01:40.928Z,99.90
2019-05-10T02:04:09.816Z,99.90
2019-05-10T02:06:38.746Z,99.90
2019-05-10T02:09:08.377Z,99.90
2019-05-10T02:11:37.276Z,99.90
2019-05-10T02:14:06.286Z,99.90
2019-05-10T02:16:35.193Z,99.90
2019-05-10T02:19:04.207Z,99.90
2019-05-10T02:21:33.110Z,99.90
2019-05-10T02:24:02.005Z,99.90
2019-05-10T02:26:30.927Z,99.90
2019-05-10T02:28:59.817Z,99.90
2019-05-10T02:31:28.745Z,99.90
2019-05-10T02:33:57.651Z,99.90
2019-05-10T02:36:26.659Z,99.90
2019-05-10T02:38:55.672Z,99.90
2019-05-10T02:41:24.579Z,99.90
2019-05-10T02:43:53.596Z,99.90
2019-05-10T02:46:22.498Z,99.90
2019-05-10T02:48:51.405Z,99.90
2019-05-10T02:51:20.413Z,99.90
2019-05-10T02:53:49.326Z,99.90
2019-05-10T02:56:30.365Z,99.90
2019-05-10T02:58:51.110Z,99.90
2019-05-10T03:01:23.236Z,99.90
2019-05-10T03:03:53.558Z,99.90
2019-05-10T03:06:24.611Z,99.90
2019-05-10T03:08:53.802Z,99.90
2019-05-10T03:11:22.728Z,99.90
2019-05-10T03:13:52.749Z,99.90
2019-05-10T03:16:24.639Z,99.90
2019-05-10T03:18:53.847Z,99.90
2019-05-10T03:21:24.497Z,99.90
2019-05-10T03:23:53.529Z,99.90
2019-05-10T03:26:22.521Z,99.90
2019-05-10T03:28:51.841Z,99.90
2019-05-10T03:31:20.775Z,99.90
2019-05-10T03:33:55.480Z,99.90
2019-05-10T03:36:20.187Z,99.90
2019-05-10T03:38:49.412Z,99.90
2019-05-10T03:41:18.320Z,99.90
2019-05-10T03:43:47.165Z,99.90
2019-05-10T03:46:16.144Z,99.90
2019-05-10T03:48:45.043Z,99.90
2019-05-10T03:51:13.953Z,99.90
2019-05-10T03:53:42.865Z,99.90
2019-05-10T03:56:13.007Z,99.90
2019-05-10T03:58:41.996Z,99.90
2019-05-10T04:01:10.911Z,99.90
2019-05-10T04:03:39.924Z,99.90
2019-05-10T04:06:08.821Z,99.90
2019-05-10T04:08:38.257Z,99.90
2019-05-10T04:11:07.260Z,99.90
2019-05-10T04:13:36.271Z,99.90
2019-05-10T04:16:05.287Z,99.90
2019-05-10T04:18:34.205Z,99.90
2019-05-10T04:21:03.096Z,99.90
2019-05-10T04:23:32.110Z,99.90
2019-05-10T04:26:01.118Z,99.90
2019-05-10T04:28:30.033Z,99.90
2019-05-10T04:30:58.933Z,99.90
2019-05-10T04:33:27.941Z,99.90
2019-05-10T04:35:56.791Z,99.90
2019-05-10T04:38:25.763Z,99.90
2019-05-10T04:40:55.178Z,99.90
2019-05-10T04:43:24.084Z,99.90
2019-05-10T04:45:53.172Z,99.90
2019-05-10T04:48:22.206Z,99.90
2019-05-10T04:50:51.216Z,99.90
2019-05-10T04:53:20.344Z,99.90
2019-05-10T04:55:49.236Z,99.90
2019-05-10T04:58:19.067Z,99.90
2019-05-10T05:00:47.920Z,99.90
2019-05-10T05:03:16.992Z,99.90
2019-05-10T05:05:45.914Z,99.90
2019-05-10T05:08:14.799Z,99.90
2019-05-10T05:10:43.707Z,99.90
2019-05-10T05:13:12.924Z,99.90
2019-05-10T05:15:42.224Z,99.90
2019-05-10T05:18:11.146Z,99.90
2019-05-10T05:20:40.138Z,99.90
2019-05-10T05:23:09.373Z,99.90
2019-05-10T05:25:40.184Z,99.90
2019-05-10T05:28:08.822Z,99.90
2019-05-10T05:30:38.841Z,99.90
2019-05-10T05:33:07.972Z,99.90
2019-05-10T05:35:36.876Z,99.90
2019-05-10T05:38:07.227Z,99.90
2019-05-10T05:40:36.135Z,99.90
2019-05-10T05:43:08.293Z,99.90
2019-05-10T05:45:35.777Z,99.90
2019-05-10T05:48:04.792Z,99.90
2019-05-10T05:50:33.802Z,99.90
2019-05-10T05:53:02.709Z,99.90
2019-05-10T05:55:32.284Z,99.90
2019-05-10T05:58:04.723Z,99.90
2019-05-10T06:00:37.614Z,99.90
2019-05-10T06:03:03.779Z,99.90
2019-05-10T06:05:34.960Z,99.90
2019-05-10T06:08:03.256Z,99.90
2019-05-10T06:10:32.638Z,99.90
2019-05-10T06:13:01.545Z,99.90
2019-05-10T06:15:31.580Z,99.90
2019-05-10T06:18:03.375Z,99.90
2019-05-10T06:20:31.340Z,99.90
2019-05-10T06:23:06.457Z,99.90
2019-05-10T06:25:39.422Z,99.90
2019-05-10T06:28:01.439Z,99.90
2019-05-10T06:30:30.348Z,99.90
2019-05-10T06:33:00.705Z,99.90
2019-05-10T06:35:29.799Z,99.90
2019-05-10T06:37:58.810Z,99.90
2019-05-10T06:40:34.803Z,99.90
2019-05-10T06:42:58.368Z,99.90
2019-05-10T06:45:27.295Z,99.90
2019-05-10T06:47:56.187Z,99.90
2019-05-10T06:50:29.958Z,99.90
2019-05-10T06:53:00.850Z,99.90
2019-05-10T06:55:26.386Z,99.90
2019-05-10T06:57:59.147Z,99.90
2019-05-10T07:00:26.357Z,99.90
2019-05-10T07:02:56.281Z,99.90
2019-05-10T07:05:25.289Z,99.90
2019-05-10T07:08:00.562Z,99.90
2019-05-10T07:10:25.374Z,99.90
2019-05-10T07:12:56.939Z,99.90
2019-05-10T07:15:25.440Z,99.90
2019-05-10T07:17:54.331Z,99.90
2019-05-10T07:20:23.669Z,99.90
2019-05-10T07:22:53.738Z,99.90
2019-05-10T07:25:24.445Z,99.90
2019-05-10T07:27:53.545Z,99.90
2019-05-10T07:30:34.325Z,99.90
2019-05-10T07:33:03.246Z,99.90
2019-05-10T07:35:36.981Z,99.90
2019-05-10T07:38:02.993Z,99.90
2019-05-10T07:40:31.906Z,99.90
2019-05-10T07:43:01.014Z,99.90
2019-05-10T07:45:30.162Z,99.90
2019-05-10T07:48:02.389Z,99.90
2019-05-10T07:50:29.579Z,99.90
2019-05-10T07:52:58.486Z,99.90
2019-05-10T07:55:29.508Z,99.90
2019-05-10T07:57:58.994Z,99.90
2019-05-10T08:00:28.483Z,99.90
2019-05-10T08:03:07.503Z,99.90
2019-05-10T08:05:29.524Z,99.90
2019-05-10T08:07:58.982Z,99.90
2019-05-10T08:10:29.034Z,99.90
2019-05-10T08:12:59.530Z,99.90
2019-05-10T08:15:32.659Z,99.90
2019-05-10T08:17:59.332Z,99.90
2019-05-10T08:20:45.788Z,99.90
2019-05-10T08:22:58.787Z,99.90
2019-05-10T08:25:29.109Z,99.90
2019-05-10T08:27:58.238Z,99.90
2019-05-10T08:30:42.694Z,99.90
2019-05-10T08:33:09.825Z,99.90
2019-05-10T08:35:39.245Z,99.90
2019-05-10T08:38:08.651Z,99.90
2019-05-10T08:40:38.101Z,99.90
2019-05-10T08:43:09.724Z,99.90
2019-05-10T08:45:38.735Z,99.90
2019-05-10T08:48:08.537Z,99.90
2019-05-10T08:50:49.383Z,99.90
2019-05-10T08:53:10.930Z,99.90
2019-05-10T08:55:38.998Z,99.90
2019-05-10T08:58:07.857Z,99.90
2019-05-10T09:00:49.279Z,99.90
2019-05-10T09:03:17.584Z,99.90
2019-05-10T09:05:39.923Z,99.90
2019-05-10T09:08:13.673Z,99.90
2019-05-10T09:10:39.056Z,99.90
2019-05-10T09:13:07.872Z,99.90
2019-05-10T09:15:43.168Z,99.90
2019-05-10T09:18:07.706Z,99.90
2019-05-10T09:20:36.725Z,99.90
2019-05-10T09:23:08.697Z,99.90
2019-05-10T09:25:36.166Z,99.90
2019-05-10T09:28:11.642Z,99.90
2019-05-10T09:30:36.939Z,99.90
2019-05-10T09:33:10.427Z,99.90
2019-05-10T09:35:38.922Z,99.90
2019-05-10T09:38:07.057Z,99.90
2019-05-10T09:40:42.537Z,99.90
2019-05-10T09:43:09.608Z,99.90
2019-05-10T09:45:37.066Z,99.90
2019-05-10T09:48:06.100Z,99.90
2019-05-10T09:50:41.237Z,99.90
2019-05-10T09:53:07.322Z,99.90
2019-05-10T09:55:36.964Z,99.90
2019-05-10T09:58:08.401Z,99.90
2019-05-10T10:00:37.986Z,99.90
2019-05-10T10:03:08.265Z,99.90
2019-05-10T10:05:39.845Z,99.90
2019-05-10T10:08:09.269Z,99.90
2019-05-10T10:10:38.619Z,99.90
2019-05-10T10:13:13.230Z,99.90
2019-05-10T10:15:38.052Z,99.90
2019-05-10T10:18:07.064Z,99.90
2019-05-10T10:20:43.556Z,99.90
2019-05-10T10:23:07.287Z,99.90
2019-05-10T10:25:40.635Z,99.90
2019-05-10T10:28:08.224Z,99.90
2019-05-10T10:30:37.658Z,99.90
2019-05-10T10:33:11.845Z,99.90
2019-05-10T10:35:37.896Z,99.90
2019-05-10T10:38:07.987Z,99.90
2019-05-10T10:40:44.100Z,99.90
2019-05-10T10:43:08.239Z,99.90
2019-05-10T10:45:37.805Z,99.90
2019-05-10T10:48:09.936Z,99.90
2019-05-10T10:50:37.528Z,99.90
2019-05-10T10:53:07.978Z,99.90
2019-05-10T10:55:40.129Z,99.90
2019-05-10T10:58:07.720Z,99.90
2019-05-10T11:00:38.958Z,99.90
2019-05-10T11:03:07.586Z,99.90
2019-05-10T11:05:36.596Z,99.90
2019-05-10T11:08:06.422Z,99.90
2019-05-10T11:10:35.431Z,99.90
2019-05-10T11:13:11.894Z,99.90
2019-05-10T11:15:36.494Z,99.90
2019-05-10T11:18:05.534Z,99.90
2019-05-10T11:20:34.549Z,99.90
2019-05-10T11:23:03.422Z,99.90
2019-05-10T11:25:32.360Z,99.90
2019-05-10T11:28:01.918Z,99.40
2019-05-10T11:30:32.478Z,99.30
2019-05-10T11:33:01.855Z,99.00
2019-05-10T11:35:33.804Z,98.90
2019-05-10T11:38:01.415Z,99.20
2019-05-10T11:40:32.679Z,99.50
2019-05-10T11:43:01.496Z,99.80
2019-05-10T11:45:34.277Z,99.90
2019-05-10T11:48:02.235Z,99.90
2019-05-10T11:53:06.855Z,99.90
2019-05-10T11:55:35.329Z,99.90
2019-05-10T11:58:08.742Z,99.90
2019-05-10T11:59:03.903Z,99.90
2019-05-10T12:00:34.886Z,99.90
2019-05-10T12:03:11.335Z,99.90
2019-05-10T12:05:34.329Z,99.90
2019-05-10T12:08:03.236Z,99.90
2019-05-10T12:10:32.201Z,99.90
2019-05-10T12:13:11.358Z,99.90
2019-05-10T12:15:32.012Z,99.90
2019-05-10T12:18:04.813Z,99.90
2019-05-10T12:20:41.275Z,99.90
2019-05-10T12:23:03.194Z,99.90
2019-05-10T12:25:46.907Z,99.90
2019-05-10T12:28:03.094Z,99.90
2019-05-10T12:30:34.835Z,99.90
2019-05-10T12:33:08.830Z,99.90
2019-05-10T12:35:39.882Z,99.90
2019-05-10T12:38:03.641Z,99.90
2019-05-10T12:40:32.548Z,99.90
2019-05-10T12:43:01.556Z,99.90
2019-05-10T12:45:31.338Z,99.90
2019-05-10T12:48:01.313Z,99.90
2019-05-10T12:50:30.531Z,99.90
2019-05-10T12:53:12.572Z,99.90
2019-05-10T12:55:30.097Z,99.90
2019-05-10T12:57:58.994Z,99.90
2019-05-10T13:00:27.900Z,99.90
2019-05-10T13:03:11.625Z,99.90
2019-05-10T13:05:32.076Z,99.90
2019-05-10T13:07:58.899Z,99.90
2019-05-10T13:10:27.928Z,99.90
2019-05-10T13:12:56.945Z,99.90
2019-05-10T13:15:31.223Z,99.90
2019-05-10T13:17:57.469Z,99.90
2019-05-10T13:20:30.752Z,99.90
2019-05-10T13:22:56.981Z,99.90
2019-05-10T13:25:25.887Z,99.90
2019-05-10T13:27:54.792Z,99.90
2019-05-10T13:30:28.280Z,99.90
2019-05-10T13:32:58.525Z,99.90
2019-05-10T13:35:24.901Z,99.90
2019-05-10T13:37:56.879Z,99.90
2019-05-10T13:40:24.345Z,99.90
2019-05-10T13:42:53.251Z,99.90
2019-05-10T13:45:22.263Z,99.90
2019-05-10T13:47:51.171Z,99.90
2019-05-10T13:50:20.018Z,99.90
2019-05-10T13:52:48.985Z,99.90
2019-05-10T13:55:19.606Z,99.90
2019-05-10T13:57:49.524Z,99.90
2019-05-10T14:00:18.677Z,99.90
2019-05-10T14:02:47.584Z,99.90
2019-05-10T14:05:17.502Z,99.90
2019-05-10T14:07:52.227Z,99.90
2019-05-10T14:10:23.612Z,99.90
2019-05-10T14:12:48.129Z,99.90
2019-05-10T14:15:17.240Z,99.90
2019-05-10T14:17:46.149Z,99.90
2019-05-10T14:20:30.856Z,99.90
2019-05-10T14:22:48.401Z,99.70
2019-05-10T14:25:16.665Z,99.40
2019-05-10T14:27:45.670Z,99.90
2019-05-10T14:30:16.185Z,99.40
2019-05-10T14:32:45.224Z,98.60
2019-05-10T14:35:16.389Z,98.80
2019-05-10T14:37:47.851Z,98.70
2019-05-10T14:40:16.890Z,98.30
2019-05-10T14:42:46.722Z,98.60
2019-05-10T14:45:16.504Z,98.90
2019-05-10T14:47:50.539Z,98.70
2019-05-10T14:50:19.250Z,98.80
2019-05-10T14:52:46.927Z,98.70
2019-05-10T14:55:15.833Z,98.60
2019-05-10T14:57:44.944Z,98.00
2019-05-10T15:00:14.255Z,97.80
2019-05-10T15:02:43.122Z,97.60
2019-05-10T15:05:16.147Z,97.80
2019-05-10T15:07:42.931Z,97.80
2019-05-10T15:10:11.942Z,98.10
2019-05-10T15:12:40.850Z,98.20
2019-05-10T15:15:10.456Z,98.10
2019-05-10T15:17:39.489Z,98.10
2019-05-10T15:20:08.504Z,98.00
2019-05-10T15:22:37.401Z,97.90
2019-05-10T15:25:07.138Z,97.60
2019-05-10T15:27:36.137Z,97.50
2019-05-10T15:30:08.643Z,97.60
2019-05-10T15:32:37.724Z,97.50
2019-05-10T15:35:08.317Z,97.70
2019-05-10T15:37:40.743Z,97.60
2019-05-10T15:40:08.762Z,97.50
2019-05-10T15:42:38.457Z,97.20
2019-05-10T15:45:12.256Z,96.90
2019-05-10T15:47:50.685Z,96.90
2019-05-10T15:50:10.820Z,97.00
2019-05-10T15:52:46.252Z,97.40
2019-05-10T15:55:10.500Z,97.80
2019-05-10T15:57:39.409Z,98.00
2019-05-10T16:00:09.051Z,98.40
2019-05-10T16:02:37.938Z,98.80
2019-05-10T16:05:23.463Z,98.90
2019-05-10T16:07:38.618Z,98.90
2019-05-10T16:10:07.734Z,98.80
2019-05-10T16:12:37.780Z,98.90
2019-05-10T16:15:13.611Z,99.00
2019-05-10T16:17:39.973Z,99.10
2019-05-10T16:20:09.281Z,99.00
2019-05-10T16:22:38.206Z,99.00
2019-05-10T16:25:07.649Z,98.70
2019-05-10T16:27:40.468Z,98.40
2019-05-10T16:30:11.985Z,98.00
2019-05-10T16:32:38.751Z,98.10
2019-05-10T16:35:12.843Z,98.00
2019-05-10T16:37:38.615Z,97.90
2019-05-10T16:40:10.391Z,97.70
2019-05-10T16:42:39.395Z,97.60
2019-05-10T16:45:08.726Z,97.30
2019-05-10T16:47:37.620Z,97.30
2019-05-10T16:50:07.452Z,97.30
2019-05-10T16:52:46.489Z,97.30
2019-05-10T16:55:15.174Z,97.20
2019-05-10T16:57:44.099Z,97.40
2019-05-10T17:00:14.158Z,97.40
2019-05-10T17:02:44.001Z,97.40
2019-05-10T17:05:15.322Z,97.20
2019-05-10T17:07:43.826Z,97.20
2019-05-10T17:10:12.836Z,97.30
2019-05-10T17:12:43.644Z,97.50
2019-05-10T17:15:12.586Z,97.70
2019-05-10T17:17:44.768Z,98.50
2019-05-10T17:20:15.680Z,99.00
2019-05-10T17:22:43.004Z,99.10
2019-05-10T17:25:12.405Z,99.50
2019-05-10T17:27:41.268Z,99.50
2019-05-10T17:30:10.751Z,99.70
2019-05-10T17:32:39.657Z,99.80
2019-05-10T17:35:08.888Z,99.90
2019-05-10T17:37:37.882Z,99.90
2019-05-10T17:40:10.334Z,99.90
2019-05-10T17:42:41.223Z,99.90
2019-05-10T17:45:09.756Z,99.90
2019-05-10T17:47:38.734Z,99.90
2019-05-10T17:50:08.853Z,99.90
2019-05-10T17:52:37.879Z,99.90
2019-05-10T17:55:10.962Z,99.70
2019-05-10T17:57:37.365Z,99.70
2019-05-10T18:00:08.186Z,99.80
2019-05-10T18:02:37.091Z,99.80
2019-05-10T18:05:08.238Z,99.90
2019-05-10T18:07:37.171Z,99.90
2019-05-10T18:10:06.493Z,99.90
2019-05-10T18:12:35.384Z,99.90
2019-05-10T18:15:08.386Z,99.90
2019-05-10T18:17:37.278Z,99.90
2019-05-10T18:20:06.830Z,99.90
2019-05-10T18:22:43.698Z,99.90
2019-05-10T18:25:06.985Z,99.90
2019-05-10T18:27:37.655Z,99.90
2019-05-10T18:30:07.140Z,99.90
2019-05-10T18:32:37.195Z,99.90
2019-05-10T18:35:14.829Z,99.90
2019-05-10T18:37:38.277Z,99.90
2019-05-10T18:40:08.107Z,99.90
2019-05-10T18:42:36.997Z,99.90
2019-05-10T18:45:10.061Z,99.90
2019-05-10T18:47:39.028Z,99.90
2019-05-10T18:50:08.354Z,99.90
2019-05-10T18:52:37.356Z,99.90
2019-05-10T18:55:06.756Z,99.90
2019-05-10T18:57:35.686Z,99.90
2019-05-10T19:00:05.941Z,99.90
2019-05-10T19:02:35.133Z,99.90
2019-05-10T19:05:05.891Z,99.90
2019-05-10T19:07:34.895Z,99.90
2019-05-10T19:10:07.485Z,99.90
2019-05-10T19:12:37.460Z,99.90
2019-05-10T19:15:14.694Z,99.90
2019-05-10T19:17:40.301Z,99.90
2019-05-10T19:20:15.932Z,99.90
2019-05-10T19:22:42.617Z,99.90
2019-05-10T19:25:13.934Z,99.90
2019-05-10T19:27:44.648Z,99.90
2019-05-10T19:30:12.975Z,99.90
2019-05-10T19:32:41.880Z,99.90
2019-05-10T19:35:10.994Z,99.90
2019-05-10T19:37:40.007Z,99.90
2019-05-10T19:40:09.768Z,99.90
2019-05-10T19:42:42.963Z,99.90
2019-05-10T19:45:12.972Z,99.90
2019-05-10T19:47:40.453Z,99.90
2019-05-10T19:50:10.386Z,99.90
2019-05-10T19:52:39.390Z,99.90
2019-05-10T19:55:12.967Z,99.90
2019-05-10T19:57:39.043Z,99.90
2019-05-10T20:00:09.691Z,99.90
2019-05-10T20:02:38.606Z,99.90
2019-05-10T20:05:08.035Z,99.90
2019-05-10T20:07:45.813Z,99.90
2019-05-10T20:10:08.205Z,99.90
2019-05-10T20:12:37.511Z,99.90
2019-05-10T20:15:08.040Z,99.90
2019-05-10T20:17:37.507Z,99.90
2019-05-10T20:20:07.900Z,99.90
2019-05-10T20:22:36.932Z,99.90
2019-05-10T20:25:09.235Z,99.90
2019-05-10T20:27:38.239Z,99.90
2019-05-10T20:30:07.432Z,99.90
2019-05-10T20:32:36.477Z,99.90
2019-05-10T20:35:08.361Z,99.90
2019-05-10T20:37:37.338Z,99.90
2019-05-10T20:40:08.191Z,99.90
2019-05-10T20:42:37.093Z,99.90
2019-05-10T20:45:08.347Z,99.90
2019-05-10T20:47:37.145Z,99.90
2019-05-10T20:50:06.583Z,99.90
2019-05-10T20:52:35.483Z,99.90
2019-05-10T20:55:06.218Z,99.90
2019-05-10T20:57:35.145Z,99.90
2019-05-10T21:00:05.875Z,99.90
2019-05-10T21:02:34.799Z,99.90
2019-05-10T21:05:05.330Z,99.90
2019-05-10T21:07:34.355Z,99.90
2019-05-10T21:10:03.348Z,99.90
2019-05-10T21:12:32.377Z,99.90
2019-05-10T21:15:01.274Z,99.90
2019-05-10T21:17:30.190Z,99.90
2019-05-10T21:19:59.088Z,99.90
2019-05-10T21:22:29.131Z,99.90
2019-05-10T21:24:58.147Z,99.90
2019-05-10T21:27:27.050Z,99.90
2019-05-10T21:29:56.058Z,99.90
2019-05-10T21:32:24.967Z,99.90
2019-05-10T21:34:53.978Z,99.90
2019-05-10T21:37:22.886Z,99.90
2019-05-10T21:39:51.792Z,99.90
2019-05-10T21:42:20.680Z,99.90
2019-05-10T21:44:49.710Z,99.90
2019-05-10T21:47:18.619Z,99.90
2019-05-10T21:49:47.630Z,99.90
2019-05-10T21:52:16.535Z,99.90
2019-05-10T21:54:45.444Z,99.90
2019-05-10T21:57:14.354Z,99.90
2019-05-10T21:59:44.181Z,99.90
2019-05-10T22:02:14.034Z,99.90
2019-05-10T22:04:42.904Z,99.90
2019-05-10T22:07:11.824Z,99.90
2019-05-10T22:09:40.732Z,99.90
2019-05-10T22:12:09.645Z,99.90
2019-05-10T22:14:38.548Z,99.90
2019-05-10T22:17:07.558Z,99.90
2019-05-10T22:19:36.466Z,99.90
2019-05-10T22:22:05.476Z,99.90
2019-05-10T22:24:34.388Z,99.90
2019-05-10T22:27:03.405Z,99.90
2019-05-10T22:29:32.303Z,99.90
2019-05-10T22:32:01.209Z,99.90
2019-05-10T22:34:30.220Z,99.90
2019-05-10T22:36:59.127Z,99.90
2019-05-10T22:39:28.036Z,99.90
2019-05-10T22:41:56.947Z,99.90
2019-05-10T22:44:25.851Z,99.90
2019-05-10T22:46:54.779Z,99.90
2019-05-10T22:49:23.771Z,99.90
2019-05-10T22:51:52.679Z,99.90
2019-05-10T22:54:21.584Z,99.90
2019-05-10T22:56:50.493Z,99.90
2019-05-10T22:59:19.510Z,99.90
2019-05-10T23:01:48.400Z,99.90
2019-05-10T23:04:17.317Z,99.90
2019-05-10T23:06:46.226Z,99.90
2019-05-10T23:09:24.179Z,99.90
2019-05-10T23:11:45.678Z,99.90
2019-05-10T23:14:14.585Z,99.90
2019-05-10T23:16:43.492Z,99.90
2019-05-10T23:19:12.711Z,99.90
2019-05-10T23:21:41.623Z,99.90
2019-05-10T23:24:12.163Z,99.90
2019-05-10T23:26:41.070Z,99.90
2019-05-10T23:29:09.981Z,99.90
2019-05-10T23:31:38.905Z,99.90
2019-05-10T23:34:07.795Z,99.90
2019-05-10T23:36:36.685Z,99.90
2019-05-10T23:39:07.236Z,99.90
2019-05-10T23:41:36.237Z,99.90
2019-05-10T23:44:05.163Z,99.90
2019-05-10T23:46:34.278Z,99.90
2019-05-10T23:49:03.288Z,99.90
2019-05-10T23:51:32.296Z,99.90
2019-05-10T23:54:01.203Z,99.90
2019-05-10T23:56:30.111Z,99.90
2019-05-10T23:58:59.025Z,99.90
